sensor_id;sensor_type;location;lat;lon;timestamp;temperature;humidity
16578;DHT22;8401;52.528;13.340;2022-12-20T00:01:23;4.80;99.90
16578;DHT22;8401;52.528;13.340;2022-12-20T00:03:50;4.70;99.90
16578;DHT22;8401;52.528;13.340;2022-12-20T00:06:17;4.70;99.90
16578;DHT22;8401;52.528;13.340;2022-12-20T00:08:43;4.70;99.90
16578;DHT22;8401;52.528;13.340;2022-12-20T00:11:09;4.80;99.90
16578;DHT22;8401;52.528;13.340;2022-12-20T00:13:36;4.80;99.90
16578;DHT22;8401;52.528;13.340;2022-12-20T00:18:32;4.80;99.90
16578;DHT22;8401;52.528;13.340;2022-12-20T00:21:02;4.80;99.90
16578;DHT22;8401;52.528;13.340;2022-12-20T00:23:28;4.80;99.90
16578;DHT22;8401;52.528;13.340;2022-12-20T00:26:05;4.80;99.90
16578;DHT22;8401;52.528;13.340;2022-12-20T00:28:33;4.80;99.90
16578;DHT22;8401;52.528;13.340;2022-12-20T00:30:59;4.80;99.90
16578;DHT22;8401;52.528;13.340;2022-12-20T00:33:25;4.80;99.90
16578;DHT22;8401;52.528;13.340;2022-12-20T00:35:51;4.80;99.90
16578;DHT22;8401;52.528;13.340;2022-12-20T00:38:18;4.80;99.90
16578;DHT22;8401;52.528;13.340;2022-12-20T00:40:44;4.80;99.90
16578;DHT22;8401;52.528;13.340;2022-12-20T00:43:10;4.90;99.90
16578;DHT22;8401;52.528;13.340;2022-12-20T00:45:35;4.90;99.90
16578;DHT22;8401;52.528;13.340;2022-12-20T00:48:01;4.90;99.90
16578;DHT22;8401;52.528;13.340;2022-12-20T00:50:26;4.80;99.90
16578;DHT22;8401;52.528;13.340;2022-12-20T00:52:52;4.80;99.90
16578;DHT22;8401;52.528;13.340;2022-12-20T00:55:18;4.90;99.90
16578;DHT22;8401;52.528;13.340;2022-12-20T00:57:43;4.90;99.90
16578;DHT22;8401;52.528;13.340;2022-12-20T01:00:09;4.90;99.90
16578;DHT22;8401;52.528;13.340;2022-12-20T01:02:36;4.90;99.90
16578;DHT22;8401;52.528;13.340;2022-12-20T01:05:01;4.90;99.90
16578;DHT22;8401;52.528;13.340;2022-12-20T01:07:27;5.00;99.90
16578;DHT22;8401;52.528;13.340;2022-12-20T01:09:53;5.00;99.90
16578;DHT22;8401;52.528;13.340;2022-12-20T01:12:18;5.00;99.90
16578;DHT22;8401;52.528;13.340;2022-12-20T01:14:44;5.00;99.90
16578;DHT22;8401;52.528;13.340;2022-12-20T01:17:09;5.00;99.90
16578;DHT22;8401;52.528;13.340;2022-12-20T01:19:35;5.00;99.90
16578;DHT22;8401;52.528;13.340;2022-12-20T01:22:01;5.10;99.90
16578;DHT22;8401;52.528;13.340;2022-12-20T01:24:26;5.10;99.90
16578;DHT22;8401;52.528;13.340;2022-12-20T01:26:52;5.10;99.90
16578;DHT22;8401;52.528;13.340;2022-12-20T01:29:18;5.10;99.90
16578;DHT22;8401;52.528;13.340;2022-12-20T01:31:44;5.00;99.90
16578;DHT22;8401;52.528;13.340;2022-12-20T01:34:10;5.10;99.90
16578;DHT22;8401;52.528;13.340;2022-12-20T01:36:36;5.10;99.90
16578;DHT22;8401;52.528;13.340;2022-12-20T01:39:13;5.20;99.90
16578;DHT22;8401;52.528;13.340;2022-12-20T01:41:39;5.10;99.90
16578;DHT22;8401;52.528;13.340;2022-12-20T01:46:45;5.20;99.90
16578;DHT22;8401;52.528;13.340;2022-12-20T01:51:51;5.30;99.90
16578;DHT22;8401;52.528;13.340;2022-12-20T01:54:18;5.30;99.90
16578;DHT22;8401;52.528;13.340;2022-12-20T01:56:49;5.20;99.90
16578;DHT22;8401;52.528;13.340;2022-12-20T01:59:15;5.20;99.90
16578;DHT22;8401;52.528;13.340;2022-12-20T02:01:42;5.20;99.90
16578;DHT22;8401;52.528;13.340;2022-12-20T02:04:08;5.20;99.90
16578;DHT22;8401;52.528;13.340;2022-12-20T02:06:34;5.30;99.90
16578;DHT22;8401;52.528;13.340;2022-12-20T02:09:02;5.30;99.90
16578;DHT22;8401;52.528;13.340;2022-12-20T02:17:12;5.20;99.90
16578;DHT22;8401;52.528;13.340;2022-12-20T02:23:05;5.10;99.90
16578;DHT22;8401;52.528;13.340;2022-12-20T02:31:10;5.10;99.90
16578;DHT22;8401;52.528;13.340;2022-12-20T02:33:40;5.20;99.90
16578;DHT22;8401;52.528;13.340;2022-12-20T02:36:07;5.20;99.90
16578;DHT22;8401;52.528;13.340;2022-12-20T02:38:36;5.30;99.90
16578;DHT22;8401;52.528;13.340;2022-12-20T02:41:29;5.40;99.90
16578;DHT22;8401;52.528;13.340;2022-12-20T02:44:06;5.30;99.90
16578;DHT22;8401;52.528;13.340;2022-12-20T02:46:55;5.30;99.90
16578;DHT22;8401;52.528;13.340;2022-12-20T02:49:27;5.30;99.90
16578;DHT22;8401;52.528;13.340;2022-12-20T02:51:54;5.30;99.90
16578;DHT22;8401;52.528;13.340;2022-12-20T02:54:20;5.40;99.90
16578;DHT22;8401;52.528;13.340;2022-12-20T02:57:14;5.40;99.90
16578;DHT22;8401;52.528;13.340;2022-12-20T02:59:42;5.40;99.90
16578;DHT22;8401;52.528;13.340;2022-12-20T03:02:11;5.40;99.90
16578;DHT22;8401;52.528;13.340;2022-12-20T03:04:39;5.40;99.90
16578;DHT22;8401;52.528;13.340;2022-12-20T03:07:09;5.40;99.90
16578;DHT22;8401;52.528;13.340;2022-12-20T03:09:37;5.40;99.90
16578;DHT22;8401;52.528;13.340;2022-12-20T03:12:03;5.30;99.90
16578;DHT22;8401;52.528;13.340;2022-12-20T03:14:29;5.40;99.90
16578;DHT22;8401;52.528;13.340;2022-12-20T03:16:55;5.50;99.90
16578;DHT22;8401;52.528;13.340;2022-12-20T03:19:21;5.50;99.90
16578;DHT22;8401;52.528;13.340;2022-12-20T03:21:47;5.50;99.90
16578;DHT22;8401;52.528;13.340;2022-12-20T03:24:13;5.60;99.90
16578;DHT22;8401;52.528;13.340;2022-12-20T03:26:40;5.60;99.90
16578;DHT22;8401;52.528;13.340;2022-12-20T03:29:05;5.50;99.90
16578;DHT22;8401;52.528;13.340;2022-12-20T03:31:31;5.50;99.90
16578;DHT22;8401;52.528;13.340;2022-12-20T03:33:57;5.50;99.90
16578;DHT22;8401;52.528;13.340;2022-12-20T03:36:23;5.50;99.90
16578;DHT22;8401;52.528;13.340;2022-12-20T03:38:50;5.50;99.90
16578;DHT22;8401;52.528;13.340;2022-12-20T03:41:17;5.50;99.90
16578;DHT22;8401;52.528;13.340;2022-12-20T03:43:43;5.60;99.90
16578;DHT22;8401;52.528;13.340;2022-12-20T03:46:09;5.60;99.90
16578;DHT22;8401;52.528;13.340;2022-12-20T03:48:34;5.60;99.90
16578;DHT22;8401;52.528;13.340;2022-12-20T03:51:00;5.60;99.90
16578;DHT22;8401;52.528;13.340;2022-12-20T03:53:25;5.60;99.90
16578;DHT22;8401;52.528;13.340;2022-12-20T03:55:51;5.60;99.90
16578;DHT22;8401;52.528;13.340;2022-12-20T03:58:17;5.70;99.90
16578;DHT22;8401;52.528;13.340;2022-12-20T04:00:42;5.70;99.90
16578;DHT22;8401;52.528;13.340;2022-12-20T04:03:08;5.70;99.90
16578;DHT22;8401;52.528;13.340;2022-12-20T04:05:33;5.60;99.90
16578;DHT22;8401;52.528;13.340;2022-12-20T04:07:59;5.60;99.90
16578;DHT22;8401;52.528;13.340;2022-12-20T04:10:25;5.60;99.90
16578;DHT22;8401;52.528;13.340;2022-12-20T04:12:51;5.40;99.90
16578;DHT22;8401;52.528;13.340;2022-12-20T04:15:17;5.40;99.90
16578;DHT22;8401;52.528;13.340;2022-12-20T04:17:43;5.40;99.90
16578;DHT22;8401;52.528;13.340;2022-12-20T04:20:12;5.50;99.90
16578;DHT22;8401;52.528;13.340;2022-12-20T04:22:48;5.60;99.90
16578;DHT22;8401;52.528;13.340;2022-12-20T04:25:16;5.60;99.90
16578;DHT22;8401;52.528;13.340;2022-12-20T04:27:42;5.60;99.90
16578;DHT22;8401;52.528;13.340;2022-12-20T04:30:08;5.60;99.90
16578;DHT22;8401;52.528;13.340;2022-12-20T04:32:34;5.60;99.90
16578;DHT22;8401;52.528;13.340;2022-12-20T04:35:00;5.60;99.90
16578;DHT22;8401;52.528;13.340;2022-12-20T04:37:26;5.40;99.90
16578;DHT22;8401;52.528;13.340;2022-12-20T04:39:52;5.40;99.90
16578;DHT22;8401;52.528;13.340;2022-12-20T04:42:17;5.40;99.90
16578;DHT22;8401;52.528;13.340;2022-12-20T04:44:43;5.40;99.90
16578;DHT22;8401;52.528;13.340;2022-12-20T04:47:09;5.40;99.90
16578;DHT22;8401;52.528;13.340;2022-12-20T04:49:35;5.50;99.90
16578;DHT22;8401;52.528;13.340;2022-12-20T04:52:01;5.40;99.90
16578;DHT22;8401;52.528;13.340;2022-12-20T04:54:46;5.50;99.90
16578;DHT22;8401;52.528;13.340;2022-12-20T04:57:12;5.50;99.90
16578;DHT22;8401;52.528;13.340;2022-12-20T04:59:38;5.50;99.90
16578;DHT22;8401;52.528;13.340;2022-12-20T05:02:04;5.50;99.90
16578;DHT22;8401;52.528;13.340;2022-12-20T05:04:29;5.50;99.90
16578;DHT22;8401;52.528;13.340;2022-12-20T05:06:55;5.40;99.90
16578;DHT22;8401;52.528;13.340;2022-12-20T05:09:21;5.40;99.90
16578;DHT22;8401;52.528;13.340;2022-12-20T05:11:47;5.30;99.90
16578;DHT22;8401;52.528;13.340;2022-12-20T05:14:12;5.50;99.90
16578;DHT22;8401;52.528;13.340;2022-12-20T05:16:38;5.40;99.90
16578;DHT22;8401;52.528;13.340;2022-12-20T05:19:04;5.30;99.90
16578;DHT22;8401;52.528;13.340;2022-12-20T05:21:29;5.40;99.90
16578;DHT22;8401;52.528;13.340;2022-12-20T05:24:14;5.40;99.90
16578;DHT22;8401;52.528;13.340;2022-12-20T05:26:58;5.50;99.90
16578;DHT22;8401;52.528;13.340;2022-12-20T05:29:24;5.60;99.90
16578;DHT22;8401;52.528;13.340;2022-12-20T05:31:50;5.60;99.90
16578;DHT22;8401;52.528;13.340;2022-12-20T05:34:16;5.70;99.90
16578;DHT22;8401;52.528;13.340;2022-12-20T05:36:42;5.70;99.90
16578;DHT22;8401;52.528;13.340;2022-12-20T05:39:07;5.70;99.90
16578;DHT22;8401;52.528;13.340;2022-12-20T05:41:33;5.70;99.90
16578;DHT22;8401;52.528;13.340;2022-12-20T05:43:59;5.70;99.90
16578;DHT22;8401;52.528;13.340;2022-12-20T05:46:24;5.70;99.90
16578;DHT22;8401;52.528;13.340;2022-12-20T05:48:50;5.80;99.90
16578;DHT22;8401;52.528;13.340;2022-12-20T05:51:16;5.70;99.90
16578;DHT22;8401;52.528;13.340;2022-12-20T05:53:42;5.80;99.90
16578;DHT22;8401;52.528;13.340;2022-12-20T05:56:08;5.80;99.90
16578;DHT22;8401;52.528;13.340;2022-12-20T05:58:33;5.70;99.90
16578;DHT22;8401;52.528;13.340;2022-12-20T06:01:01;5.70;99.90
16578;DHT22;8401;52.528;13.340;2022-12-20T06:03:27;5.70;99.90
16578;DHT22;8401;52.528;13.340;2022-12-20T06:05:53;5.80;99.90
16578;DHT22;8401;52.528;13.340;2022-12-20T06:08:19;5.90;99.90
16578;DHT22;8401;52.528;13.340;2022-12-20T06:10:47;5.80;99.90
16578;DHT22;8401;52.528;13.340;2022-12-20T06:13:12;5.80;99.90
16578;DHT22;8401;52.528;13.340;2022-12-20T06:15:38;5.70;99.90
16578;DHT22;8401;52.528;13.340;2022-12-20T06:18:05;5.90;99.90
16578;DHT22;8401;52.528;13.340;2022-12-20T06:20:31;5.80;99.90
16578;DHT22;8401;52.528;13.340;2022-12-20T06:22:57;5.80;99.90
16578;DHT22;8401;52.528;13.340;2022-12-20T06:25:23;5.80;99.90
16578;DHT22;8401;52.528;13.340;2022-12-20T06:27:49;5.80;99.90
16578;DHT22;8401;52.528;13.340;2022-12-20T06:30:15;5.80;99.90
16578;DHT22;8401;52.528;13.340;2022-12-20T06:32:41;5.80;99.90
16578;DHT22;8401;52.528;13.340;2022-12-20T06:35:07;5.80;99.90
16578;DHT22;8401;52.528;13.340;2022-12-20T06:37:33;5.80;99.90
16578;DHT22;8401;52.528;13.340;2022-12-20T06:40:00;5.80;99.90
16578;DHT22;8401;52.528;13.340;2022-12-20T06:42:26;5.80;99.90
16578;DHT22;8401;52.528;13.340;2022-12-20T06:44:52;5.90;99.90
16578;DHT22;8401;52.528;13.340;2022-12-20T06:47:18;5.80;99.90
16578;DHT22;8401;52.528;13.340;2022-12-20T06:49:43;5.80;99.90
16578;DHT22;8401;52.528;13.340;2022-12-20T06:52:09;5.80;99.90
16578;DHT22;8401;52.528;13.340;2022-12-20T06:54:35;5.80;99.90
16578;DHT22;8401;52.528;13.340;2022-12-20T06:57:00;5.80;99.90
16578;DHT22;8401;52.528;13.340;2022-12-20T06:59:26;5.70;99.90
16578;DHT22;8401;52.528;13.340;2022-12-20T07:01:51;5.70;99.90
16578;DHT22;8401;52.528;13.340;2022-12-20T07:04:17;5.60;99.90
16578;DHT22;8401;52.528;13.340;2022-12-20T07:06:43;5.60;99.90
16578;DHT22;8401;52.528;13.340;2022-12-20T07:09:09;5.60;99.90
16578;DHT22;8401;52.528;13.340;2022-12-20T07:11:36;5.60;99.90
16578;DHT22;8401;52.528;13.340;2022-12-20T07:14:02;5.60;99.90
16578;DHT22;8401;52.528;13.340;2022-12-20T07:16:27;5.70;99.90
16578;DHT22;8401;52.528;13.340;2022-12-20T07:18:53;5.70;99.90
16578;DHT22;8401;52.528;13.340;2022-12-20T07:21:20;5.70;99.90
16578;DHT22;8401;52.528;13.340;2022-12-20T07:23:46;5.60;99.90
16578;DHT22;8401;52.528;13.340;2022-12-20T07:26:13;5.70;99.90
16578;DHT22;8401;52.528;13.340;2022-12-20T07:28:39;5.80;99.90
16578;DHT22;8401;52.528;13.340;2022-12-20T07:31:05;5.80;99.90
16578;DHT22;8401;52.528;13.340;2022-12-20T07:33:31;5.80;99.90
16578;DHT22;8401;52.528;13.340;2022-12-20T07:36:05;5.70;99.90
16578;DHT22;8401;52.528;13.340;2022-12-20T07:38:32;5.80;99.90
16578;DHT22;8401;52.528;13.340;2022-12-20T07:41:00;5.80;99.90
16578;DHT22;8401;52.528;13.340;2022-12-20T07:43:26;5.90;99.90
16578;DHT22;8401;52.528;13.340;2022-12-20T07:45:55;5.90;99.90
16578;DHT22;8401;52.528;13.340;2022-12-20T07:48:21;5.80;99.90
16578;DHT22;8401;52.528;13.340;2022-12-20T07:50:50;5.80;99.90
16578;DHT22;8401;52.528;13.340;2022-12-20T07:53:15;5.80;99.90
16578;DHT22;8401;52.528;13.340;2022-12-20T07:55:42;5.80;99.90
16578;DHT22;8401;52.528;13.340;2022-12-20T07:58:10;5.90;99.90
16578;DHT22;8401;52.528;13.340;2022-12-20T08:00:36;5.90;99.90
16578;DHT22;8401;52.528;13.340;2022-12-20T08:05:36;5.80;99.90
16578;DHT22;8401;52.528;13.340;2022-12-20T08:08:04;6.00;99.90
16578;DHT22;8401;52.528;13.340;2022-12-20T08:10:30;6.50;99.90
16578;DHT22;8401;52.528;13.340;2022-12-20T08:12:57;6.50;99.90
16578;DHT22;8401;52.528;13.340;2022-12-20T08:15:23;6.40;99.90
16578;DHT22;8401;52.528;13.340;2022-12-20T08:17:49;6.30;99.90
16578;DHT22;8401;52.528;13.340;2022-12-20T08:20:15;6.20;99.90
16578;DHT22;8401;52.528;13.340;2022-12-20T08:22:41;6.10;99.90
16578;DHT22;8401;52.528;13.340;2022-12-20T08:25:07;6.10;99.90
16578;DHT22;8401;52.528;13.340;2022-12-20T08:27:34;6.10;99.90
16578;DHT22;8401;52.528;13.340;2022-12-20T08:29:59;6.10;99.90
16578;DHT22;8401;52.528;13.340;2022-12-20T08:32:25;6.10;99.90
16578;DHT22;8401;52.528;13.340;2022-12-20T08:34:52;6.10;99.90
16578;DHT22;8401;52.528;13.340;2022-12-20T08:37:18;5.90;99.90
16578;DHT22;8401;52.528;13.340;2022-12-20T08:39:43;6.00;99.90
16578;DHT22;8401;52.528;13.340;2022-12-20T08:42:10;6.10;99.90
16578;DHT22;8401;52.528;13.340;2022-12-20T08:44:36;6.10;99.90
16578;DHT22;8401;52.528;13.340;2022-12-20T08:47:01;6.10;99.90
16578;DHT22;8401;52.528;13.340;2022-12-20T08:49:27;6.10;99.90
16578;DHT22;8401;52.528;13.340;2022-12-20T08:51:53;6.20;99.90
16578;DHT22;8401;52.528;13.340;2022-12-20T08:54:18;6.20;99.90
16578;DHT22;8401;52.528;13.340;2022-12-20T08:56:44;6.20;99.90
16578;DHT22;8401;52.528;13.340;2022-12-20T08:59:10;6.30;99.90
16578;DHT22;8401;52.528;13.340;2022-12-20T09:01:35;6.30;99.90
16578;DHT22;8401;52.528;13.340;2022-12-20T09:04:01;6.40;99.90
16578;DHT22;8401;52.528;13.340;2022-12-20T09:06:28;6.30;99.90
16578;DHT22;8401;52.528;13.340;2022-12-20T09:08:55;6.30;99.90
16578;DHT22;8401;52.528;13.340;2022-12-20T09:11:23;6.40;99.90
16578;DHT22;8401;52.528;13.340;2022-12-20T09:13:51;6.40;99.90
16578;DHT22;8401;52.528;13.340;2022-12-20T09:16:20;6.50;99.90
16578;DHT22;8401;52.528;13.340;2022-12-20T09:18:54;6.50;99.90
16578;DHT22;8401;52.528;13.340;2022-12-20T09:21:20;6.60;99.90
16578;DHT22;8401;52.528;13.340;2022-12-20T09:23:48;6.60;99.90
16578;DHT22;8401;52.528;13.340;2022-12-20T09:26:16;6.60;99.90
16578;DHT22;8401;52.528;13.340;2022-12-20T09:28:42;6.70;99.90
16578;DHT22;8401;52.528;13.340;2022-12-20T09:31:12;6.80;99.90
16578;DHT22;8401;52.528;13.340;2022-12-20T09:33:39;6.80;99.90
16578;DHT22;8401;52.528;13.340;2022-12-20T09:36:05;6.90;99.90
16578;DHT22;8401;52.528;13.340;2022-12-20T09:38:32;7.00;99.90
16578;DHT22;8401;52.528;13.340;2022-12-20T09:41:02;7.10;99.90
16578;DHT22;8401;52.528;13.340;2022-12-20T09:43:29;7.20;99.90
16578;DHT22;8401;52.528;13.340;2022-12-20T09:46:01;7.40;99.90
16578;DHT22;8401;52.528;13.340;2022-12-20T09:48:38;7.50;99.90
16578;DHT22;8401;52.528;13.340;2022-12-20T09:51:16;7.60;99.90
16578;DHT22;8401;52.528;13.340;2022-12-20T09:56:26;7.60;99.90
16578;DHT22;8401;52.528;13.340;2022-12-20T09:59:11;7.50;99.90
16578;DHT22;8401;52.528;13.340;2022-12-20T10:01:38;7.60;99.90
16578;DHT22;8401;52.528;13.340;2022-12-20T10:04:22;7.50;99.90
16578;DHT22;8401;52.528;13.340;2022-12-20T10:12:38;7.60;99.90
16578;DHT22;8401;52.528;13.340;2022-12-20T10:15:27;7.60;99.90
16578;DHT22;8401;52.528;13.340;2022-12-20T10:18:19;7.70;99.90
16578;DHT22;8401;52.528;13.340;2022-12-20T10:21:10;7.60;99.90
16578;DHT22;8401;52.528;13.340;2022-12-20T10:23:47;7.70;99.90
16578;DHT22;8401;52.528;13.340;2022-12-20T10:26:14;7.80;99.90
16578;DHT22;8401;52.528;13.340;2022-12-20T10:28:40;7.80;99.90
16578;DHT22;8401;52.528;13.340;2022-12-20T10:31:14;7.90;99.90
16578;DHT22;8401;52.528;13.340;2022-12-20T10:33:40;7.90;99.90
16578;DHT22;8401;52.528;13.340;2022-12-20T10:36:30;7.90;99.90
16578;DHT22;8401;52.528;13.340;2022-12-20T10:39:01;7.90;99.90
16578;DHT22;8401;52.528;13.340;2022-12-20T10:41:30;7.90;99.90
16578;DHT22;8401;52.528;13.340;2022-12-20T10:44:14;7.90;99.90
16578;DHT22;8401;52.528;13.340;2022-12-20T10:46:42;7.90;99.90
16578;DHT22;8401;52.528;13.340;2022-12-20T10:49:35;7.80;99.90
16578;DHT22;8401;52.528;13.340;2022-12-20T10:54:37;8.00;99.90
16578;DHT22;8401;52.528;13.340;2022-12-20T10:59:43;8.20;99.90
16578;DHT22;8401;52.528;13.340;2022-12-20T11:02:28;8.30;99.90
16578;DHT22;8401;52.528;13.340;2022-12-20T11:07:58;8.30;99.90
16578;DHT22;8401;52.528;13.340;2022-12-20T11:10:26;8.40;99.90
16578;DHT22;8401;52.528;13.340;2022-12-20T11:13:00;8.40;99.90
16578;DHT22;8401;52.528;13.340;2022-12-20T11:15:28;8.30;99.90
16578;DHT22;8401;52.528;13.340;2022-12-20T11:18:19;8.30;99.90
16578;DHT22;8401;52.528;13.340;2022-12-20T11:20:58;8.30;99.90
16578;DHT22;8401;52.528;13.340;2022-12-20T11:23:37;8.30;99.90
16578;DHT22;8401;52.528;13.340;2022-12-20T11:29:10;8.50;99.90
16578;DHT22;8401;52.528;13.340;2022-12-20T11:35:08;8.60;99.90
16578;DHT22;8401;52.528;13.340;2022-12-20T11:40:33;8.60;99.90
16578;DHT22;8401;52.528;13.340;2022-12-20T11:51:24;8.70;99.90
16578;DHT22;8401;52.528;13.340;2022-12-20T11:54:06;8.70;99.90
16578;DHT22;8401;52.528;13.340;2022-12-20T11:56:40;8.70;99.90
16578;DHT22;8401;52.528;13.340;2022-12-20T11:59:42;8.70;99.90
16578;DHT22;8401;52.528;13.340;2022-12-20T12:04:52;8.70;99.90
16578;DHT22;8401;52.528;13.340;2022-12-20T12:07:30;8.80;99.90
16578;DHT22;8401;52.528;13.340;2022-12-20T12:10:16;8.90;99.90
16578;DHT22;8401;52.528;13.340;2022-12-20T12:12:45;8.90;99.90
16578;DHT22;8401;52.528;13.340;2022-12-20T12:18:09;8.90;99.90
16578;DHT22;8401;52.528;13.340;2022-12-20T12:23:23;9.00;99.90
16578;DHT22;8401;52.528;13.340;2022-12-20T12:25:51;9.00;99.90
16578;DHT22;8401;52.528;13.340;2022-12-20T12:28:19;9.10;99.90
16578;DHT22;8401;52.528;13.340;2022-12-20T12:30:52;9.10;99.90
16578;DHT22;8401;52.528;13.340;2022-12-20T12:33:34;9.10;99.90
16578;DHT22;8401;52.528;13.340;2022-12-20T12:38:55;9.10;99.90
16578;DHT22;8401;52.528;13.340;2022-12-20T12:46:45;9.10;99.90
16578;DHT22;8401;52.528;13.340;2022-12-20T12:49:16;9.10;99.90
16578;DHT22;8401;52.528;13.340;2022-12-20T12:51:49;9.10;99.90
16578;DHT22;8401;52.528;13.340;2022-12-20T12:54:39;9.10;99.90
16578;DHT22;8401;52.528;13.340;2022-12-20T12:57:12;9.10;99.90
16578;DHT22;8401;52.528;13.340;2022-12-20T12:59:39;9.10;99.90
16578;DHT22;8401;52.528;13.340;2022-12-20T13:04:58;9.00;99.90
16578;DHT22;8401;52.528;13.340;2022-12-20T13:07:46;9.10;99.90
16578;DHT22;8401;52.528;13.340;2022-12-20T13:18:19;8.90;99.90
16578;DHT22;8401;52.528;13.340;2022-12-20T13:20:41;9.00;99.90
16578;DHT22;8401;52.528;13.340;2022-12-20T13:25:53;8.80;99.90
16578;DHT22;8401;52.528;13.340;2022-12-20T13:33:43;8.80;99.90
16578;DHT22;8401;52.528;13.340;2022-12-20T13:46:44;8.60;99.90
16578;DHT22;8401;52.528;13.340;2022-12-20T13:51:46;8.60;99.90
16578;DHT22;8401;52.528;13.340;2022-12-20T13:54:17;8.60;99.90
16578;DHT22;8401;52.528;13.340;2022-12-20T13:56:47;8.60;99.90
16578;DHT22;8401;52.528;13.340;2022-12-20T13:59:23;8.50;99.90
16578;DHT22;8401;52.528;13.340;2022-12-20T14:01:53;8.50;99.90
16578;DHT22;8401;52.528;13.340;2022-12-20T14:04:19;8.50;99.90
16578;DHT22;8401;52.528;13.340;2022-12-20T14:06:53;8.50;99.90
16578;DHT22;8401;52.528;13.340;2022-12-20T14:09:54;8.50;99.90
16578;DHT22;8401;52.528;13.340;2022-12-20T14:12:20;8.40;99.90
16578;DHT22;8401;52.528;13.340;2022-12-20T14:14:48;8.40;99.90
16578;DHT22;8401;52.528;13.340;2022-12-20T14:17:31;8.40;99.90
16578;DHT22;8401;52.528;13.340;2022-12-20T14:25:30;8.40;99.90
16578;DHT22;8401;52.528;13.340;2022-12-20T14:27:56;8.40;99.90
16578;DHT22;8401;52.528;13.340;2022-12-20T14:30:31;8.40;99.90
16578;DHT22;8401;52.528;13.340;2022-12-20T14:32:59;8.40;99.90
16578;DHT22;8401;52.528;13.340;2022-12-20T14:35:25;8.30;99.90
16578;DHT22;8401;52.528;13.340;2022-12-20T14:38:01;8.30;99.90
16578;DHT22;8401;52.528;13.340;2022-12-20T14:40:28;8.30;99.90
16578;DHT22;8401;52.528;13.340;2022-12-20T14:42:55;8.30;99.90
16578;DHT22;8401;52.528;13.340;2022-12-20T14:45:24;8.20;99.90
16578;DHT22;8401;52.528;13.340;2022-12-20T14:48:02;8.30;99.90
16578;DHT22;8401;52.528;13.340;2022-12-20T14:50:37;8.20;99.90
16578;DHT22;8401;52.528;13.340;2022-12-20T14:53:16;8.20;99.90
16578;DHT22;8401;52.528;13.340;2022-12-20T14:55:45;8.20;99.90
16578;DHT22;8401;52.528;13.340;2022-12-20T14:58:30;8.20;99.90
16578;DHT22;8401;52.528;13.340;2022-12-20T15:03:52;8.20;99.90
16578;DHT22;8401;52.528;13.340;2022-12-20T15:06:44;8.10;99.90
16578;DHT22;8401;52.528;13.340;2022-12-20T15:09:10;8.10;99.90
16578;DHT22;8401;52.528;13.340;2022-12-20T15:11:36;8.10;99.90
16578;DHT22;8401;52.528;13.340;2022-12-20T15:14:30;8.10;99.90
16578;DHT22;8401;52.528;13.340;2022-12-20T15:16:57;8.00;99.90
16578;DHT22;8401;52.528;13.340;2022-12-20T15:19:23;8.00;99.90
16578;DHT22;8401;52.528;13.340;2022-12-20T15:21:48;7.90;99.90
16578;DHT22;8401;52.528;13.340;2022-12-20T15:24:17;7.90;99.90
16578;DHT22;8401;52.528;13.340;2022-12-20T15:26:44;7.90;99.90
16578;DHT22;8401;52.528;13.340;2022-12-20T15:29:24;7.80;99.90
16578;DHT22;8401;52.528;13.340;2022-12-20T15:31:55;7.80;99.90
16578;DHT22;8401;52.528;13.340;2022-12-20T15:34:37;7.80;99.90
16578;DHT22;8401;52.528;13.340;2022-12-20T15:37:03;7.80;99.90
16578;DHT22;8401;52.528;13.340;2022-12-20T15:39:30;7.80;99.90
16578;DHT22;8401;52.528;13.340;2022-12-20T15:41:59;7.80;99.90
16578;DHT22;8401;52.528;13.340;2022-12-20T15:44:26;7.70;99.90
16578;DHT22;8401;52.528;13.340;2022-12-20T15:46:53;7.70;99.90
16578;DHT22;8401;52.528;13.340;2022-12-20T15:49:29;7.70;99.90
16578;DHT22;8401;52.528;13.340;2022-12-20T15:51:55;7.60;99.90
16578;DHT22;8401;52.528;13.340;2022-12-20T15:54:27;7.70;99.90
16578;DHT22;8401;52.528;13.340;2022-12-20T15:56:59;7.70;99.90
16578;DHT22;8401;52.528;13.340;2022-12-20T15:59:27;7.70;99.90
16578;DHT22;8401;52.528;13.340;2022-12-20T16:01:53;7.70;99.90
16578;DHT22;8401;52.528;13.340;2022-12-20T16:04:20;7.70;99.90
16578;DHT22;8401;52.528;13.340;2022-12-20T16:06:48;7.60;99.90
16578;DHT22;8401;52.528;13.340;2022-12-20T16:09:15;7.60;99.90
16578;DHT22;8401;52.528;13.340;2022-12-20T16:11:41;7.70;99.90
16578;DHT22;8401;52.528;13.340;2022-12-20T16:14:20;7.60;99.90
16578;DHT22;8401;52.528;13.340;2022-12-20T16:16:46;7.50;99.90
16578;DHT22;8401;52.528;13.340;2022-12-20T16:19:13;7.60;99.90
16578;DHT22;8401;52.528;13.340;2022-12-20T16:21:50;7.60;99.90
16578;DHT22;8401;52.528;13.340;2022-12-20T16:24:19;7.60;99.90
16578;DHT22;8401;52.528;13.340;2022-12-20T16:26:47;7.60;99.90
16578;DHT22;8401;52.528;13.340;2022-12-20T16:29:13;7.60;99.90
16578;DHT22;8401;52.528;13.340;2022-12-20T16:31:42;7.50;99.90
16578;DHT22;8401;52.528;13.340;2022-12-20T16:34:16;7.50;99.90
16578;DHT22;8401;52.528;13.340;2022-12-20T16:36:42;7.50;99.90
16578;DHT22;8401;52.528;13.340;2022-12-20T16:39:08;7.50;99.90
16578;DHT22;8401;52.528;13.340;2022-12-20T16:41:39;7.50;99.90
16578;DHT22;8401;52.528;13.340;2022-12-20T16:44:05;7.50;99.90
16578;DHT22;8401;52.528;13.340;2022-12-20T16:46:36;7.50;99.90
16578;DHT22;8401;52.528;13.340;2022-12-20T16:49:01;7.50;99.90
16578;DHT22;8401;52.528;13.340;2022-12-20T16:51:28;7.50;99.90
16578;DHT22;8401;52.528;13.340;2022-12-20T16:56:22;7.50;99.90
16578;DHT22;8401;52.528;13.340;2022-12-20T16:58:48;7.50;99.90
16578;DHT22;8401;52.528;13.340;2022-12-20T17:01:20;7.50;99.90
16578;DHT22;8401;52.528;13.340;2022-12-20T17:03:48;7.50;99.90
16578;DHT22;8401;52.528;13.340;2022-12-20T17:06:14;7.50;99.90
16578;DHT22;8401;52.528;13.340;2022-12-20T17:08:41;7.50;99.90
16578;DHT22;8401;52.528;13.340;2022-12-20T17:13:41;7.50;99.90
16578;DHT22;8401;52.528;13.340;2022-12-20T17:16:09;7.40;99.90
16578;DHT22;8401;52.528;13.340;2022-12-20T17:18:40;7.40;99.90
16578;DHT22;8401;52.528;13.340;2022-12-20T17:24:04;7.50;99.90
16578;DHT22;8401;52.528;13.340;2022-12-20T17:26:33;7.40;99.90
16578;DHT22;8401;52.528;13.340;2022-12-20T17:28:59;7.40;99.90
16578;DHT22;8401;52.528;13.340;2022-12-20T17:31:30;7.40;99.90
16578;DHT22;8401;52.528;13.340;2022-12-20T17:34:01;7.50;99.90
16578;DHT22;8401;52.528;13.340;2022-12-20T17:36:27;7.40;99.90
16578;DHT22;8401;52.528;13.340;2022-12-20T17:38:52;7.50;99.90
16578;DHT22;8401;52.528;13.340;2022-12-20T17:43:48;7.50;99.90
16578;DHT22;8401;52.528;13.340;2022-12-20T17:46:14;7.50;99.90
16578;DHT22;8401;52.528;13.340;2022-12-20T17:48:39;7.50;99.90
16578;DHT22;8401;52.528;13.340;2022-12-20T17:51:26;7.60;99.90
16578;DHT22;8401;52.528;13.340;2022-12-20T17:53:57;7.50;99.90
16578;DHT22;8401;52.528;13.340;2022-12-20T17:56:25;7.50;99.90
16578;DHT22;8401;52.528;13.340;2022-12-20T17:58:52;7.50;99.90
16578;DHT22;8401;52.528;13.340;2022-12-20T18:01:26;7.60;99.90
16578;DHT22;8401;52.528;13.340;2022-12-20T18:03:54;7.60;99.90